Time;durP1;ratioP1;P1;durP2;ratioP2;P2;SDS_P1;SDS_P2;PMS_P1;PMS_P2;Temp;Humidity;BMP_temperature;BMP_pressure;BME280_temperature;BME280_humidity;BME280_pressure;Samples;Min_cycle;Max_cycle;Signal;HPM_P1;HPM_P2
2021/01/14 00:00:19;;;;;;;1.13;0.93;;;1.90;99.90;;;;;;4956113;29;20110;-79
2021/01/14 00:02:45;;;;;;;1.20;1.10;;;1.80;99.90;;;;;;4956086;29;20065;-79
2021/01/14 00:05:12;;;;;;;2.45;0.85;;;1.80;99.90;;;;;;4956052;29;20070;-79
2021/01/14 00:07:39;;;;;;;1.25;1.10;;;1.70;99.90;;;;;;4956034;29;20127;-79
2021/01/14 00:10:10;;;;;;;1.08;0.93;;;1.80;99.90;;;;;;4955896;29;20034;-79
2021/01/14 00:12:36;;;;;;;1.30;1.20;;;1.70;99.90;;;;;;4955983;29;20498;-79
2021/01/14 00:15:04;;;;;;;1.50;1.10;;;1.70;99.90;;;;;;4957176;28;20015;-80
2021/01/14 00:17:30;;;;;;;1.48;1.17;;;1.70;99.90;;;;;;4956099;29;20399;-79
2021/01/14 00:19:55;;;;;;;1.58;1.40;;;1.70;99.90;;;;;;4956117;29;20028;-80
2021/01/14 00:22:21;;;;;;;1.30;1.20;;;1.80;99.90;;;;;;4955713;29;20031;-80
2021/01/14 00:24:47;;;;;;;1.50;1.10;;;1.70;99.90;;;;;;4955718;29;20031;-79
2021/01/14 00:27:12;;;;;;;2.60;1.30;;;1.80;99.90;;;;;;4957184;28;20059;-79
2021/01/14 00:29:38;;;;;;;2.45;1.10;;;1.80;99.90;;;;;;4956813;28;20360;-80
2021/01/14 00:32:04;;;;;;;1.30;1.00;;;1.80;99.90;;;;;;4954496;28;20027;-79
2021/01/14 00:34:30;;;;;;;1.58;1.20;;;1.70;99.90;;;;;;4955493;29;20382;-79
2021/01/14 00:39:40;;;;;;;1.65;1.10;;;1.70;99.90;;;;;;4956987;29;20125;-79
2021/01/14 00:42:05;;;;;;;1.60;1.10;;;1.70;99.90;;;;;;4955370;29;20495;-79
2021/01/14 00:44:31;;;;;;;2.05;1.30;;;1.70;99.90;;;;;;4955374;29;20031;-79
2021/01/14 00:46:58;;;;;;;1.40;1.15;;;1.70;99.90;;;;;;4955289;29;20391;-80
2021/01/14 00:49:25;;;;;;;3.63;1.10;;;1.60;99.90;;;;;;4956443;28;20118;-79
2021/01/14 00:51:51;;;;;;;1.67;1.10;;;1.60;99.90;;;;;;4956533;28;20083;-80
2021/01/14 00:54:17;;;;;;;1.23;1.13;;;1.60;99.90;;;;;;4955236;29;20031;-79
2021/01/14 00:56:43;;;;;;;1.40;1.20;;;1.60;99.90;;;;;;4955148;29;20031;-79
2021/01/14 00:59:09;;;;;;;1.42;1.20;;;1.50;99.90;;;;;;4955096;29;20122;-79
2021/01/14 01:01:38;;;;;;;1.55;1.25;;;1.50;99.90;;;;;;4955058;29;20435;-79
2021/01/14 01:04:04;;;;;;;1.63;1.25;;;1.50;99.90;;;;;;4956280;28;20027;-79
2021/01/14 01:06:35;;;;;;;1.90;1.17;;;1.50;99.90;;;;;;4954939;29;20486;-79
2021/01/14 01:09:05;;;;;;;1.25;1.02;;;1.50;99.90;;;;;;4954850;29;20082;-79
2021/01/14 01:11:31;;;;;;;2.10;1.30;;;1.60;99.90;;;;;;4956170;28;20027;-79
2021/01/14 01:13:58;;;;;;;1.25;1.10;;;1.70;99.90;;;;;;4954691;29;20030;-79
2021/01/14 01:16:23;;;;;;;1.40;1.10;;;1.60;99.90;;;;;;4954735;29;20028;-79
2021/01/14 01:18:49;;;;;;;1.13;1.00;;;1.60;99.90;;;;;;4954778;29;20031;-79
2021/01/14 01:21:15;;;;;;;1.30;1.20;;;1.60;99.90;;;;;;4955963;28;20055;-79
2021/01/14 01:23:41;;;;;;;1.42;1.00;;;1.60;99.90;;;;;;4954641;29;20039;-79
2021/01/14 01:26:07;;;;;;;1.20;1.10;;;1.60;99.90;;;;;;4954607;29;20031;-79
2021/01/14 01:28:33;;;;;;;2.25;1.10;;;1.60;99.90;;;;;;4954740;29;20053;-79
2021/01/14 01:30:59;;;;;;;1.52;1.10;;;1.70;99.90;;;;;;4954549;29;20024;-79
2021/01/14 01:33:26;;;;;;;2.15;1.08;;;1.70;99.90;;;;;;4954504;29;20030;-79
2021/01/14 01:35:52;;;;;;;2.13;1.20;;;1.60;99.90;;;;;;4955621;28;20098;-80
2021/01/14 01:38:18;;;;;;;1.35;1.20;;;1.60;99.90;;;;;;4954383;29;20028;-80
2021/01/14 01:40:44;;;;;;;1.27;1.02;;;1.60;99.90;;;;;;4955469;28;20558;-79
2021/01/14 01:43:10;;;;;;;2.25;1.20;;;1.60;99.90;;;;;;4954032;28;20031;-79
2021/01/14 01:45:36;;;;;;;2.42;1.30;;;1.70;99.90;;;;;;4954322;29;20035;-79
2021/01/14 01:48:03;;;;;;;1.98;1.17;;;1.70;99.90;;;;;;4954315;29;20487;-80
2021/01/14 01:50:29;;;;;;;1.15;1.00;;;1.70;99.90;;;;;;4955034;29;20118;-79
2021/01/14 01:52:57;;;;;;;2.20;1.30;;;1.70;99.90;;;;;;4954230;29;20031;-79
2021/01/14 01:55:23;;;;;;;2.33;1.20;;;1.70;99.90;;;;;;4955509;28;20055;-79
2021/01/14 01:57:49;;;;;;;1.25;0.98;;;1.70;99.90;;;;;;4954148;29;20020;-79
2021/01/14 02:00:15;;;;;;;2.35;1.30;;;1.70;99.90;;;;;;4954148;29;20031;-79
2021/01/14 02:02:41;;;;;;;2.47;1.20;;;1.70;99.90;;;;;;4954126;29;20038;-79
2021/01/14 02:05:07;;;;;;;1.58;1.30;;;1.70;99.90;;;;;;4955363;28;20027;-79
2021/01/14 02:07:36;;;;;;;3.05;1.20;;;1.80;99.90;;;;;;4955665;28;20535;-79
2021/01/14 02:10:11;;;;;;;2.75;1.30;;;1.70;99.90;;;;;;4953939;29;20110;-80
2021/01/14 02:12:45;;;;;;;1.98;1.10;;;1.70;99.90;;;;;;4954025;29;20023;-79
2021/01/14 02:15:13;;;;;;;3.83;1.30;;;1.70;99.90;;;;;;4954006;29;20110;-80
2021/01/14 02:17:39;;;;;;;2.00;1.02;;;1.70;99.90;;;;;;4953966;29;20364;-80
2021/01/14 02:20:06;;;;;;;1.60;1.02;;;1.70;99.90;;;;;;4953924;29;20058;-80
2021/01/14 02:22:37;;;;;;;4.00;1.13;;;1.70;99.90;;;;;;4953904;29;20563;-79
2021/01/14 02:25:12;;;;;;;2.25;1.10;;;1.70;99.90;;;;;;4953920;29;20118;-80
2021/01/14 02:27:39;;;;;;;3.35;1.30;;;1.70;99.90;;;;;;4953925;29;20109;-80
2021/01/14 02:30:10;;;;;;;1.92;1.10;;;1.70;99.90;;;;;;4955355;28;20469;-80
2021/01/14 02:32:35;;;;;;;2.28;1.17;;;1.80;99.90;;;;;;4953770;29;20024;-80
2021/01/14 02:35:01;;;;;;;2.17;1.30;;;1.80;99.90;;;;;;4953803;29;20027;-80
2021/01/14 02:37:27;;;;;;;2.53;1.23;;;1.80;99.90;;;;;;4953663;28;20431;-80
2021/01/14 02:39:52;;;;;;;4.57;1.40;;;1.80;99.90;;;;;;4954792;28;20046;-80
2021/01/14 02:42:18;;;;;;;4.63;1.50;;;1.80;99.90;;;;;;4953784;29;20053;-80
2021/01/14 02:44:44;;;;;;;2.33;1.10;;;1.80;99.90;;;;;;4954043;29;20039;-80
2021/01/14 02:47:12;;;;;;;2.28;1.10;;;1.80;99.90;;;;;;4953725;29;20054;-80
2021/01/14 02:49:56;;;;;;;1.88;1.40;;;1.80;99.90;;;;;;4953588;29;20039;-80
2021/01/14 02:52:22;;;;;;;;;;;1.80;99.90;;;;;;4954182;29;20024;-80
2021/01/14 02:54:49;;;;;;;2.63;1.35;;;1.80;99.90;;;;;;4955131;28;19906;-80
2021/01/14 02:57:16;;;;;;;2.58;1.23;;;1.80;99.90;;;;;;4957318;29;20071;-80
2021/01/14 02:59:44;;;;;;;3.47;1.40;;;1.80;99.90;;;;;;4957310;29;20058;-80
2021/01/14 03:02:09;;;;;;;2.05;1.23;;;1.80;99.90;;;;;;4957234;29;20034;-80
2021/01/14 03:04:35;;;;;;;6.50;1.65;;;1.80;99.90;;;;;;4957174;29;20031;-80
2021/01/14 03:07:01;;;;;;;3.10;1.30;;;1.80;99.90;;;;;;4957483;29;20027;-80
2021/01/14 03:09:27;;;;;;;2.00;1.35;;;1.80;99.90;;;;;;4957083;29;20055;-80
2021/01/14 03:11:53;;;;;;;3.53;1.40;;;1.80;99.90;;;;;;4957085;29;20039;-80
2021/01/14 03:14:18;;;;;;;1.80;1.25;;;1.80;99.90;;;;;;4957009;29;20595;-80
2021/01/14 03:16:44;;;;;;;1.65;1.25;;;1.80;99.90;;;;;;4956985;29;20024;-80
2021/01/14 03:19:10;;;;;;;1.98;1.33;;;1.80;99.90;;;;;;4956953;29;20034;-80
2021/01/14 03:21:35;;;;;;;2.03;1.40;;;1.80;99.90;;;;;;4956860;29;20027;-80
2021/01/14 03:24:01;;;;;;;6.70;1.67;;;1.80;99.90;;;;;;4958186;28;20475;-80
2021/01/14 03:26:27;;;;;;;4.90;1.50;;;1.80;99.90;;;;;;4956834;29;20126;-80
2021/01/14 03:28:53;;;;;;;2.80;1.67;;;1.80;99.90;;;;;;4956593;29;20035;-80
2021/01/14 03:31:19;;;;;;;2.85;1.60;;;1.80;99.90;;;;;;4956989;29;20079;-80
2021/01/14 03:33:46;;;;;;;2.60;1.33;;;1.80;99.90;;;;;;4956641;29;20027;-80
2021/01/14 03:36:17;;;;;;;2.58;1.65;;;1.80;99.90;;;;;;4956509;28;20080;-80
2021/01/14 03:38:43;;;;;;;4.07;1.42;;;1.80;99.90;;;;;;4957847;28;20528;-81
2021/01/14 03:41:13;;;;;;;3.60;1.60;;;1.90;99.90;;;;;;4956343;29;20101;-80
2021/01/14 03:43:39;;;;;;;3.20;1.70;;;1.80;99.90;;;;;;4956482;29;20475;-80
2021/01/14 03:46:23;;;;;;;3.28;1.83;;;1.80;99.90;;;;;;4956479;29;20513;-80
2021/01/14 03:48:49;;;;;;;3.47;1.45;;;1.80;99.90;;;;;;4956410;29;20041;-80
2021/01/14 03:51:21;;;;;;;2.75;1.65;;;1.80;99.90;;;;;;4956347;29;20078;-80
2021/01/14 03:53:48;;;;;;;3.08;1.30;;;1.80;99.90;;;;;;4956309;29;20061;-80
2021/01/14 03:56:15;;;;;;;3.40;1.55;;;1.90;99.90;;;;;;4956477;29;20379;-80
2021/01/14 03:58:42;;;;;;;3.95;1.77;;;1.90;99.90;;;;;;4956222;29;20031;-80
2021/01/14 04:01:08;;;;;;;4.45;1.77;;;1.80;99.90;;;;;;4956192;29;20023;-79
2021/01/14 04:03:38;;;;;;;3.63;1.90;;;1.80;99.90;;;;;;4956145;29;20098;-80
2021/01/14 04:06:04;;;;;;;4.00;1.52;;;1.80;99.90;;;;;;4955891;28;20023;-79
2021/01/14 04:08:30;;;;;;;3.28;1.70;;;1.80;99.90;;;;;;4956018;29;20050;-80
2021/01/14 04:10:55;;;;;;;2.30;1.80;;;1.80;99.90;;;;;;4955919;29;20031;-80
2021/01/14 04:13:21;;;;;;;4.10;1.88;;;1.80;99.90;;;;;;4955949;29;20019;-80
2021/01/14 04:15:47;;;;;;;3.67;2.00;;;1.80;99.90;;;;;;4956234;29;20030;-80
2021/01/14 04:18:12;;;;;;;3.83;1.85;;;1.80;99.90;;;;;;4955857;29;20146;-80
2021/01/14 04:20:38;;;;;;;4.30;1.95;;;1.80;99.90;;;;;;4955809;29;20027;-80
2021/01/14 04:23:04;;;;;;;3.88;1.42;;;1.70;99.90;;;;;;4955972;29;20094;-80
2021/01/14 04:25:30;;;;;;;2.97;1.70;;;1.70;99.90;;;;;;4955773;29;20098;-80
2021/01/14 04:28:02;;;;;;;3.83;2.30;;;1.70;99.90;;;;;;4956004;29;20467;-80
2021/01/14 04:30:32;;;;;;;5.03;2.28;;;1.70;99.90;;;;;;4955534;29;20027;-80
2021/01/14 04:33:03;;;;;;;4.03;1.77;;;1.70;99.90;;;;;;4955612;29;20034;-80
2021/01/14 04:35:28;;;;;;;4.22;2.20;;;1.70;99.90;;;;;;4955621;29;20019;-80
2021/01/14 04:37:54;;;;;;;3.25;1.65;;;1.70;99.90;;;;;;4955681;28;20023;-80
2021/01/14 04:40:20;;;;;;;3.80;2.20;;;1.70;99.90;;;;;;4955300;29;20039;-79
2021/01/14 04:42:50;;;;;;;5.88;2.40;;;1.70;99.90;;;;;;4955469;29;20023;-80
2021/01/14 04:45:19;;;;;;;3.50;2.00;;;1.70;99.90;;;;;;4956700;28;20034;-80
2021/01/14 04:47:49;;;;;;;3.50;1.83;;;1.70;99.90;;;;;;4955320;29;20495;-80
2021/01/14 04:50:17;;;;;;;5.93;2.10;;;1.70;99.90;;;;;;4955158;29;20082;-79
2021/01/14 04:52:46;;;;;;;3.63;1.95;;;1.70;99.90;;;;;;4955336;29;20520;-80
2021/01/14 04:55:15;;;;;;;4.07;1.75;;;1.80;99.90;;;;;;4955248;29;20530;-80
2021/01/14 04:57:47;;;;;;;3.90;2.20;;;1.80;99.90;;;;;;4955099;29;20031;-79
2021/01/14 05:00:14;;;;;;;4.38;2.20;;;1.80;99.90;;;;;;4956385;28;20114;-80
2021/01/14 05:02:57;;;;;;;3.05;2.10;;;1.80;99.90;;;;;;4954969;29;20038;-80
2021/01/14 05:05:24;;;;;;;4.22;2.30;;;1.70;99.90;;;;;;4955052;29;20035;-80
2021/01/14 05:08:08;;;;;;;4.22;1.92;;;1.80;99.90;;;;;;4954920;29;20102;-80
2021/01/14 05:10:37;;;;;;;;;;;1.80;99.90;;;;;;4955289;29;20030;-80
2021/01/14 05:13:03;;;;;;;5.25;2.40;;;1.80;99.90;;;;;;4954855;29;19917;-80
2021/01/14 05:15:30;;;;;;;3.50;1.92;;;1.70;99.90;;;;;;4954867;29;20479;-80
2021/01/14 05:17:57;;;;;;;7.40;2.67;;;1.80;99.90;;;;;;4955392;28;20027;-80
2021/01/14 05:20:24;;;;;;;5.55;2.75;;;1.70;99.90;;;;;;4954735;29;20376;-80
2021/01/14 05:22:56;;;;;;;4.20;2.53;;;1.70;99.90;;;;;;4954667;29;20471;-80
2021/01/14 05:25:23;;;;;;;5.78;2.10;;;1.80;99.90;;;;;;4955946;28;20023;-80
2021/01/14 05:27:48;;;;;;;5.68;2.95;;;1.70;99.90;;;;;;4955968;28;20034;-80
2021/01/14 05:30:14;;;;;;;4.07;2.28;;;1.70;99.90;;;;;;4954732;29;20032;-80
2021/01/14 05:32:42;;;;;;;3.42;2.38;;;1.70;99.90;;;;;;4954521;29;20074;-80
2021/01/14 05:35:11;;;;;;;5.07;3.42;;;1.70;99.90;;;;;;4954546;29;20055;-81
2021/01/14 05:37:44;;;;;;;6.18;3.80;;;1.70;99.90;;;;;;4955662;28;20019;-80
2021/01/14 05:40:12;;;;;;;7.32;3.60;;;1.60;99.90;;;;;;4954272;29;20094;-80
2021/01/14 05:42:39;;;;;;;3.72;2.78;;;1.70;99.90;;;;;;4954427;29;20499;-80
2021/01/14 05:45:25;;;;;;;4.90;3.00;;;1.70;99.90;;;;;;4954287;29;20023;-80
2021/01/14 05:47:51;;;;;;;4.80;2.75;;;1.60;99.90;;;;;;4954336;29;20031;-80
2021/01/14 05:50:29;;;;;;;5.35;2.53;;;1.60;99.90;;;;;;4955474;28;20449;-80
2021/01/14 05:52:56;;;;;;;4.20;2.08;;;1.60;99.90;;;;;;4954275;29;20087;-80
2021/01/14 05:55:27;;;;;;;4.85;2.55;;;1.50;99.90;;;;;;4955524;28;20102;-81
2021/01/14 05:58:03;;;;;;;3.33;2.30;;;1.50;99.90;;;;;;4938350;29;20031;-81
2021/01/14 06:00:35;;;;;;;4.38;2.63;;;1.50;99.90;;;;;;4954057;29;20130;-81
2021/01/14 06:03:30;;;;;;;9.25;3.40;;;1.60;99.90;;;;;;4954265;29;20035;-81
2021/01/14 06:05:57;;;;;;;5.57;3.05;;;1.60;99.90;;;;;;4922424;29;20489;-81
2021/01/14 06:08:28;;;;;;;4.13;2.53;;;1.60;99.90;;;;;;4955336;28;20027;-82
2021/01/14 06:10:55;;;;;;;5.03;2.58;;;1.60;99.90;;;;;;4955188;28;20027;-81
2021/01/14 06:13:40;;;;;;;3.22;2.33;;;1.50;99.90;;;;;;4953986;29;20439;-81
2021/01/14 06:16:07;;;;;;;5.45;2.60;;;1.60;99.90;;;;;;4955478;28;20038;-81
2021/01/14 06:18:33;;;;;;;4.28;2.92;;;1.60;99.90;;;;;;4953928;29;20500;-82
2021/01/14 06:20:59;;;;;;;2.45;2.10;;;1.60;99.90;;;;;;4954154;29;20085;-82
2021/01/14 06:23:25;;;;;;;6.13;2.75;;;1.70;99.90;;;;;;4954162;29;20066;-82
2021/01/14 06:25:55;;;;;;;3.03;1.90;;;1.70;99.90;;;;;;4953885;29;20130;-81
2021/01/14 06:28:32;;;;;;;3.67;1.95;;;1.60;99.90;;;;;;4954920;28;20023;-81
2021/01/14 06:31:03;;;;;;;4.72;2.15;;;1.60;99.90;;;;;;4958029;29;20031;-81
2021/01/14 06:33:30;;;;;;;4.35;2.55;;;1.60;99.90;;;;;;4957899;29;20087;-81
2021/01/14 06:36:05;;;;;;;4.60;2.20;;;1.50;99.90;;;;;;4958964;28;20027;-81
2021/01/14 06:38:50;;;;;;;3.25;2.55;;;1.50;99.90;;;;;;4957704;29;20032;-81
2021/01/14 06:41:17;;;;;;;;;;;1.50;99.90;;;;;;4958338;28;20130;-81
2021/01/14 06:43:45;;;;;;;6.10;2.50;;;1.50;99.90;;;;;;4957513;29;19907;-82
2021/01/14 06:46:33;;;;;;;5.45;3.10;;;1.50;99.90;;;;;;4957433;29;20032;-82
2021/01/14 06:49:05;;;;;;;5.18;3.25;;;1.60;99.90;;;;;;4941724;29;20051;-82
2021/01/14 06:51:54;;;;;;;4.68;2.38;;;1.60;99.90;;;;;;4957433;29;20471;-81
2021/01/14 06:54:21;;;;;;;3.67;2.30;;;1.50;99.90;;;;;;4957405;29;20043;-81
2021/01/14 06:56:57;;;;;;;3.50;2.30;;;1.50;99.90;;;;;;4958574;28;20390;-81
2021/01/14 06:59:25;;;;;;;3.17;2.15;;;1.50;99.90;;;;;;4957239;29;20150;-81
2021/01/14 07:02:29;;;;;;;4.28;2.58;;;1.50;99.90;;;;;;4958487;28;20395;-81
2021/01/14 07:05:07;;;;;;;4.43;2.88;;;1.50;99.90;;;;;;4946286;29;20031;-82
2021/01/14 07:07:46;;;;;;;5.82;2.60;;;1.50;99.90;;;;;;4956960;29;20035;-81
2021/01/14 07:10:14;;;;;;;6.63;3.10;;;1.50;99.90;;;;;;4957304;29;20035;-81
2021/01/14 07:12:45;;;;;;;5.53;3.33;;;1.50;99.90;;;;;;4958313;28;20503;-81
2021/01/14 07:15:18;;;;;;;5.05;2.10;;;1.40;99.90;;;;;;4957241;29;20030;-80
2021/01/14 07:17:45;;;;;;;5.78;2.22;;;1.30;99.90;;;;;;4957737;29;20034;-81
2021/01/14 07:20:14;;;;;;;4.30;2.65;;;1.30;99.90;;;;;;4957699;28;20085;-81
2021/01/14 07:22:50;;;;;;;3.88;2.65;;;1.30;99.90;;;;;;4957100;29;20023;-81
2021/01/14 07:25:17;;;;;;;6.55;3.10;;;1.30;99.90;;;;;;4956923;29;20035;-80
2021/01/14 07:27:44;;;;;;;5.03;2.60;;;1.30;99.90;;;;;;4957727;29;20430;-80
2021/01/14 07:30:11;;;;;;;5.25;2.35;;;1.30;99.90;;;;;;4956542;29;20337;-81
2021/01/14 07:32:53;;;;;;;3.72;2.58;;;1.30;99.90;;;;;;4958743;28;20424;-80
2021/01/14 07:35:44;;;;;;;4.78;2.20;;;1.30;99.90;;;;;;4956655;29;20391;-80
2021/01/14 07:38:18;;;;;;;3.53;2.08;;;1.30;99.90;;;;;;4957307;28;20455;-81
2021/01/14 07:40:45;;;;;;;8.07;1.80;;;1.30;99.90;;;;;;4955586;28;20491;-81
2021/01/14 07:43:12;;;;;;;3.55;2.10;;;1.30;99.90;;;;;;4958045;28;20031;-81
2021/01/14 07:45:39;;;;;;;4.47;2.00;;;1.20;99.90;;;;;;4956360;29;20027;-81
2021/01/14 07:48:24;;;;;;;6.13;2.00;;;1.20;99.90;;;;;;4956367;29;20067;-81
2021/01/14 07:50:58;;;;;;;3.85;2.25;;;1.20;99.90;;;;;;4957518;28;20549;-81
2021/01/14 07:53:25;;;;;;;2.55;2.00;;;1.20;99.90;;;;;;4956317;29;20083;-81
2021/01/14 07:55:51;;;;;;;3.95;2.08;;;1.20;99.90;;;;;;4956229;29;20118;-81
2021/01/14 07:58:20;;;;;;;3.03;2.20;;;1.20;99.90;;;;;;4956225;29;20028;-82
2021/01/14 08:01:07;;;;;;;4.20;2.40;;;1.20;99.90;;;;;;4958208;28;20023;-81
2021/01/14 08:03:43;;;;;;;4.85;2.42;;;1.20;99.90;;;;;;4956123;29;20491;-82
2021/01/14 08:06:35;;;;;;;5.25;2.22;;;1.20;99.90;;;;;;4956304;29;20066;-82
2021/01/14 08:09:05;;;;;;;5.80;2.28;;;1.20;99.90;;;;;;4957434;28;20027;-81
2021/01/14 08:11:34;;;;;;;4.50;2.40;;;1.20;99.90;;;;;;4956418;29;20031;-82
2021/01/14 08:14:20;;;;;;;4.30;2.80;;;1.20;99.90;;;;;;4956021;29;20019;-82
2021/01/14 08:16:53;;;;;;;5.47;2.40;;;1.20;99.90;;;;;;4957891;28;20475;-82
2021/01/14 08:19:29;;;;;;;5.70;3.37;;;1.20;99.90;;;;;;4957714;28;20039;-82
2021/01/14 08:21:58;;;;;;;5.85;2.22;;;1.10;99.90;;;;;;4956519;29;20031;-81
2021/01/14 08:24:50;;;;;;;6.43;2.50;;;1.10;99.90;;;;;;4957163;28;20394;-81
2021/01/14 08:27:34;;;;;;;6.13;2.53;;;1.10;99.90;;;;;;4955899;29;20032;-82
2021/01/14 08:30:12;;;;;;;3.50;2.30;;;1.00;99.90;;;;;;4957338;28;20451;-81
2021/01/14 08:32:45;;;;;;;5.05;2.88;;;1.10;99.90;;;;;;4956404;28;20118;-81
2021/01/14 08:35:23;;;;;;;5.05;2.50;;;1.10;99.90;;;;;;4956037;29;20064;-81
2021/01/14 08:38:28;;;;;;;3.85;2.20;;;1.10;99.90;;;;;;4957185;28;20024;-81
2021/01/14 08:40:54;;;;;;;3.92;2.28;;;1.10;99.90;;;;;;4939098;29;20122;-81
2021/01/14 08:43:21;;;;;;;5.43;2.53;;;1.20;99.90;;;;;;4955580;29;20179;-81
2021/01/14 08:45:54;;;;;;;5.35;1.63;;;1.20;99.90;;;;;;4956622;29;20031;-81
2021/01/14 08:48:27;;;;;;;7.15;2.22;;;1.20;99.90;;;;;;4955530;29;20058;-81
2021/01/14 08:50:55;;;;;;;4.88;1.95;;;1.40;99.90;;;;;;4955296;29;20065;-81
2021/01/14 08:53:35;;;;;;;3.95;2.25;;;1.40;99.90;;;;;;4954447;28;20487;-81
2021/01/14 08:56:08;;;;;;;2.78;1.73;;;1.40;99.90;;;;;;4957097;28;20030;-81
2021/01/14 08:58:48;;;;;;;2.83;1.90;;;1.40;99.90;;;;;;4955519;29;20110;-81
2021/01/14 09:01:25;;;;;;;4.93;2.00;;;1.40;99.90;;;;;;4955226;29;20118;-81
2021/01/14 09:03:55;;;;;;;3.80;2.03;;;1.40;99.90;;;;;;4956750;29;20371;-81
2021/01/14 09:06:42;;;;;;;2.92;1.92;;;1.40;99.90;;;;;;4955071;29;20023;-81
2021/01/14 09:09:17;;;;;;;5.03;2.42;;;1.40;99.90;;;;;;4955035;29;20027;-82
2021/01/14 09:11:43;;;;;;;6.05;2.65;;;1.50;99.90;;;;;;4955259;29;20035;-81
2021/01/14 09:14:15;;;;;;;4.55;3.00;;;1.40;99.90;;;;;;4955203;29;20031;-81
2021/01/14 09:16:43;;;;;;;4.57;2.65;;;1.50;99.90;;;;;;4954854;29;20027;-81
2021/01/14 09:19:15;;;;;;;7.00;3.22;;;1.50;99.90;;;;;;4955173;29;20031;-81
2021/01/14 09:21:41;;;;;;;6.43;3.10;;;1.60;99.90;;;;;;4956101;28;20057;-81
2021/01/14 09:24:12;;;;;;;6.22;3.35;;;1.60;99.90;;;;;;4954853;29;20031;-81
2021/01/14 09:26:40;;;;;;;5.97;3.40;;;1.60;99.90;;;;;;4954780;29;20035;-81
2021/01/14 09:29:07;;;;;;;5.43;3.28;;;1.60;99.90;;;;;;4954702;29;20506;-81
2021/01/14 09:31:36;;;;;;;7.63;3.17;;;1.60;99.90;;;;;;4954904;29;20023;-81
2021/01/14 09:34:02;;;;;;;7.55;3.60;;;1.70;99.90;;;;;;4954632;29;20078;-81
2021/01/14 09:36:29;;;;;;;8.57;4.25;;;1.60;99.90;;;;;;4956651;28;20059;-81
2021/01/14 09:39:06;;;;;;;4.38;3.00;;;1.70;99.90;;;;;;4954538;29;20391;-81
2021/01/14 09:41:34;;;;;;;10.10;3.72;;;1.70;99.90;;;;;;4955610;28;20043;-81
2021/01/14 09:44:02;;;;;;;6.35;3.40;;;1.70;99.90;;;;;;4954454;29;20031;-81
2021/01/14 09:46:36;;;;;;;15.25;4.53;;;1.60;99.90;;;;;;4954484;29;20412;-81
2021/01/14 09:49:09;;;;;;;5.25;3.40;;;1.60;99.90;;;;;;4954401;29;20035;-81
2021/01/14 09:51:35;;;;;;;5.80;3.95;;;1.60;99.90;;;;;;4954368;29;20476;-81
2021/01/14 09:54:04;;;;;;;7.25;4.75;;;1.60;99.90;;;;;;4954300;29;20394;-81
2021/01/14 09:56:38;;;;;;;5.80;3.33;;;1.60;99.90;;;;;;4954264;29;20024;-81
2021/01/14 09:59:37;;;;;;;5.82;4.28;;;1.70;99.90;;;;;;4955452;28;20510;-82
2021/01/14 10:02:10;;;;;;;6.78;3.83;;;1.60;99.90;;;;;;4947878;28;20043;-82
2021/01/14 10:04:41;;;;;;;9.70;5.43;;;1.70;99.90;;;;;;4955208;28;20475;-82
2021/01/14 10:07:15;;;;;;;7.63;5.00;;;1.70;99.90;;;;;;4954170;29;20034;-81
2021/01/14 10:09:41;;;;;;;6.43;3.78;;;1.60;99.90;;;;;;4955419;28;20035;-81
2021/01/14 10:12:11;;;;;;;7.03;3.20;;;1.50;99.90;;;;;;4955357;28;20031;-81
2021/01/14 10:14:36;;;;;;;5.15;3.00;;;1.50;99.90;;;;;;4954089;29;20114;-82
2021/01/14 10:17:18;;;;;;;6.55;3.25;;;1.40;99.90;;;;;;4954139;29;20118;-83
2021/01/14 10:19:47;;;;;;;4.18;3.03;;;1.50;99.90;;;;;;4955217;29;20114;-81
2021/01/14 10:22:14;;;;;;;11.57;3.35;;;1.50;99.90;;;;;;4954627;29;20041;-82
2021/01/14 10:24:41;;;;;;;9.45;4.20;;;1.60;99.90;;;;;;4954317;29;20120;-82
2021/01/14 10:27:17;;;;;;;13.70;4.10;;;1.60;99.90;;;;;;4954634;29;20027;-82
2021/01/14 10:29:45;;;;;;;8.90;4.53;;;1.60;99.90;;;;;;4953971;29;20035;-82
2021/01/14 10:32:16;;;;;;;6.55;3.75;;;1.50;99.90;;;;;;4954214;29;20058;-82
2021/01/14 10:34:44;;;;;;;8.00;3.97;;;1.60;99.90;;;;;;4954181;29;20541;-82
2021/01/14 10:37:22;;;;;;;8.20;3.95;;;1.70;99.90;;;;;;4953807;28;20027;-82
2021/01/14 10:39:51;;;;;;;5.45;3.40;;;1.70;99.90;;;;;;4953933;29;20035;-82
2021/01/14 10:42:35;;;;;;;6.55;3.53;;;1.80;99.90;;;;;;4937723;29;20469;-82
2021/01/14 10:45:06;;;;;;;7.45;4.28;;;1.90;99.90;;;;;;4954126;29;20027;-82
2021/01/14 10:47:33;;;;;;;5.22;3.50;;;1.90;99.90;;;;;;4953721;29;20027;-82
2021/01/14 10:49:59;;;;;;;6.00;3.33;;;1.80;99.90;;;;;;4953657;29;20078;-82
2021/01/14 10:52:25;;;;;;;8.93;3.28;;;1.80;99.90;;;;;;4954109;29;20493;-82
2021/01/14 10:55:02;;;;;;;6.95;4.03;;;1.80;99.90;;;;;;4954103;29;20020;-82
2021/01/14 10:57:50;;;;;;;5.57;3.00;;;1.80;99.90;;;;;;4953808;29;20490;-81
2021/01/14 11:00:21;;;;;;;4.05;2.90;;;1.90;99.90;;;;;;4953733;29;20031;-81
2021/01/14 11:02:47;;;;;;;5.57;3.15;;;1.90;99.90;;;;;;4954006;29;20027;-81
2021/01/14 11:05:14;;;;;;;5.57;3.00;;;1.90;99.90;;;;;;4953667;29;20110;-81
2021/01/14 11:07:41;;;;;;;6.90;3.83;;;2.00;99.90;;;;;;4956246;28;20027;-81
2021/01/14 11:10:09;;;;;;;8.65;4.25;;;1.90;99.90;;;;;;4955781;28;20034;-81
2021/01/14 11:12:54;;;;;;;7.38;3.72;;;1.90;99.90;;;;;;4938067;29;20175;-81
2021/01/14 11:15:20;;;;;;;5.22;3.00;;;2.00;99.90;;;;;;4955740;28;20088;-82
2021/01/14 11:17:46;;;;;;;7.22;4.30;;;2.00;99.90;;;;;;4958619;29;20023;-82
2021/01/14 11:20:12;;;;;;;7.55;3.30;;;2.10;99.90;;;;;;4958931;28;20031;-82
2021/01/14 11:22:38;;;;;;;7.05;3.53;;;2.20;99.90;;;;;;4957021;29;20099;-81
2021/01/14 11:25:04;;;;;;;7.07;2.83;;;2.20;99.90;;;;;;4958239;28;20031;-81
2021/01/14 11:27:30;;;;;;;7.30;3.35;;;2.20;99.90;;;;;;4956930;29;20448;-81
2021/01/14 11:29:57;;;;;;;4.50;2.50;;;2.20;99.90;;;;;;4956817;29;20113;-81
2021/01/14 11:32:23;;;;;;;4.10;2.47;;;2.20;99.90;;;;;;4958430;28;20024;-81
2021/01/14 11:34:48;;;;;;;8.88;4.43;;;2.30;99.90;;;;;;4958056;28;20531;-81
2021/01/14 11:37:14;;;;;;;8.95;4.43;;;2.20;99.90;;;;;;4956716;28;20034;-81
2021/01/14 11:39:40;;;;;;;12.30;5.15;;;2.20;99.90;;;;;;4956786;29;20035;-81
2021/01/14 11:42:06;;;;;;;13.88;6.78;;;2.20;99.90;;;;;;4956487;29;20043;-81
2021/01/14 11:44:32;;;;;;;13.38;5.50;;;2.20;99.90;;;;;;4956637;29;20031;-81
2021/01/14 11:46:58;;;;;;;7.70;4.53;;;2.10;99.90;;;;;;4957870;28;20479;-81
2021/01/14 11:49:23;;;;;;;6.97;4.40;;;1.90;99.90;;;;;;4957774;28;20074;-81
2021/01/14 11:51:50;;;;;;;10.68;4.85;;;1.90;99.90;;;;;;4956498;29;20023;-81
2021/01/14 11:54:16;;;;;;;8.45;3.47;;;1.90;99.90;;;;;;4957698;28;20028;-81
2021/01/14 11:56:41;;;;;;;4.20;3.03;;;1.80;99.90;;;;;;4956398;29;20034;-81
2021/01/14 11:59:07;;;;;;;4.20;2.80;;;1.90;99.90;;;;;;4956358;29;20054;-81
2021/01/14 12:01:33;;;;;;;6.78;3.40;;;1.80;99.90;;;;;;4957633;28;20127;-81
2021/01/14 12:03:58;;;;;;;4.55;3.20;;;1.70;99.90;;;;;;4957821;28;20498;-81
2021/01/14 12:06:24;;;;;;;6.20;3.33;;;1.60;99.90;;;;;;4956299;29;20075;-81
2021/01/14 12:08:50;;;;;;;5.05;3.50;;;1.60;99.90;;;;;;4957447;28;20027;-81
2021/01/14 12:11:19;;;;;;;6.88;3.35;;;1.60;99.90;;;;;;4957715;28;20031;-80
2021/01/14 12:13:45;;;;;;;5.55;3.20;;;1.60;99.90;;;;;;4957863;28;20023;-81
2021/01/14 12:16:11;;;;;;;5.70;3.25;;;1.60;99.90;;;;;;4956296;29;20526;-80
2021/01/14 12:18:39;;;;;;;4.32;3.25;;;1.60;99.90;;;;;;4957320;28;20029;-80
2021/01/14 12:21:05;;;;;;;5.13;3.33;;;1.60;99.90;;;;;;4957253;28;20023;-80
2021/01/14 12:23:30;;;;;;;4.25;2.92;;;1.70;99.90;;;;;;4957549;28;20383;-80
2021/01/14 12:25:56;;;;;;;8.38;3.33;;;1.90;99.90;;;;;;4955851;28;20031;-80
2021/01/14 12:28:23;;;;;;;4.18;2.83;;;2.10;99.90;;;;;;4957370;28;20058;-82
2021/01/14 12:30:49;;;;;;;4.05;2.80;;;2.20;99.90;;;;;;4955710;29;20479;-84
2021/01/14 12:33:14;;;;;;;5.47;3.65;;;2.30;99.90;;;;;;4955824;29;20026;-85
2021/01/14 12:35:40;;;;;;;4.00;3.08;;;2.20;99.90;;;;;;4956897;28;20023;-84
2021/01/14 12:38:06;;;;;;;4.10;2.75;;;2.30;99.90;;;;;;4955531;28;20030;-84
2021/01/14 12:40:32;;;;;;;3.35;2.38;;;2.30;99.90;;;;;;4955469;29;20049;-84
2021/01/14 12:42:57;;;;;;;4.22;3.05;;;2.30;99.90;;;;;;4955657;29;20458;-84
2021/01/14 12:45:23;;;;;;;3.83;2.50;;;2.20;99.90;;;;;;4957122;28;20035;-85
2021/01/14 12:47:50;;;;;;;3.30;2.15;;;2.00;99.90;;;;;;4955620;29;20479;-84
2021/01/14 12:50:16;;;;;;;3.10;2.30;;;1.90;99.90;;;;;;4955376;29;20028;-84
2021/01/14 12:52:41;;;;;;;7.22;2.55;;;1.80;99.90;;;;;;4956824;28;20094;-84
2021/01/14 12:55:08;;;;;;;8.98;4.00;;;1.60;99.90;;;;;;4955359;29;20029;-85
2021/01/14 12:57:33;;;;;;;10.48;5.57;;;1.70;99.90;;;;;;4956503;28;20090;-85
2021/01/14 12:59:59;;;;;;;5.15;3.25;;;1.70;99.90;;;;;;4955324;29;20031;-84
2021/01/14 13:02:25;;;;;;;7.30;2.95;;;1.80;99.90;;;;;;4955267;29;20058;-84
2021/01/14 13:04:50;;;;;;;5.30;2.78;;;1.90;99.90;;;;;;4956501;28;20106;-84
2021/01/14 13:07:16;;;;;;;4.65;2.38;;;1.70;99.90;;;;;;4955412;29;20387;-84
2021/01/14 13:09:42;;;;;;;4.20;2.38;;;1.60;99.90;;;;;;4955075;29;20114;-84
2021/01/14 13:12:08;;;;;;;7.47;2.22;;;1.60;99.90;;;;;;4955094;29;20062;-83